sensor_id;sensor_type;location;lat;lon;timestamp;P1;durP1;ratioP1;P2;durP2;ratioP2
13698;SDS011;6921;53.642;9.956;2023-05-07T00:00:18;13.63;;;10.13;;
13698;SDS011;6921;53.642;9.956;2023-05-07T00:02:22;15.13;;;10.85;;
13698;SDS011;6921;53.642;9.956;2023-05-07T00:04:26;12.95;;;9.98;;
13698;SDS011;6921;53.642;9.956;2023-05-07T00:06:31;13.30;;;9.95;;
13698;SDS011;6921;53.642;9.956;2023-05-07T00:08:37;12.82;;;9.80;;
13698;SDS011;6921;53.642;9.956;2023-05-07T00:10:41;11.88;;;9.40;;
13698;SDS011;6921;53.642;9.956;2023-05-07T00:12:49;11.25;;;9.32;;
13698;SDS011;6921;53.642;9.956;2023-05-07T00:14:54;11.77;;;8.90;;
13698;SDS011;6921;53.642;9.956;2023-05-07T00:16:58;12.05;;;9.40;;
13698;SDS011;6921;53.642;9.956;2023-05-07T00:19:03;11.53;;;9.17;;
13698;SDS011;6921;53.642;9.956;2023-05-07T00:21:07;11.57;;;9.27;;
13698;SDS011;6921;53.642;9.956;2023-05-07T00:23:13;12.82;;;9.02;;
13698;SDS011;6921;53.642;9.956;2023-05-07T00:25:17;10.35;;;8.57;;
13698;SDS011;6921;53.642;9.956;2023-05-07T00:27:21;11.02;;;9.27;;
13698;SDS011;6921;53.642;9.956;2023-05-07T00:29:27;11.95;;;9.15;;
13698;SDS011;6921;53.642;9.956;2023-05-07T00:31:31;12.32;;;9.40;;
13698;SDS011;6921;53.642;9.956;2023-05-07T00:33:34;11.35;;;9.15;;
13698;SDS011;6921;53.642;9.956;2023-05-07T00:35:38;11.95;;;9.80;;
13698;SDS011;6921;53.642;9.956;2023-05-07T00:37:43;13.23;;;9.95;;
13698;SDS011;6921;53.642;9.956;2023-05-07T00:39:49;12.20;;;9.70;;
13698;SDS011;6921;53.642;9.956;2023-05-07T00:41:53;11.20;;;9.63;;
13698;SDS011;6921;53.642;9.956;2023-05-07T00:43:57;11.27;;;9.63;;
13698;SDS011;6921;53.642;9.956;2023-05-07T00:46:03;12.10;;;9.75;;
13698;SDS011;6921;53.642;9.956;2023-05-07T00:48:08;14.02;;;10.68;;
13698;SDS011;6921;53.642;9.956;2023-05-07T00:50:12;12.27;;;10.10;;
13698;SDS011;6921;53.642;9.956;2023-05-07T00:52:17;13.00;;;9.98;;
13698;SDS011;6921;53.642;9.956;2023-05-07T00:54:21;11.43;;;9.93;;
13698;SDS011;6921;53.642;9.956;2023-05-07T00:56:25;14.30;;;10.45;;
13698;SDS011;6921;53.642;9.956;2023-05-07T00:58:28;18.50;;;9.60;;
13698;SDS011;6921;53.642;9.956;2023-05-07T01:00:32;13.65;;;10.00;;
13698;SDS011;6921;53.642;9.956;2023-05-07T01:02:37;12.15;;;9.68;;
13698;SDS011;6921;53.642;9.956;2023-05-07T01:04:41;13.85;;;10.43;;
13698;SDS011;6921;53.642;9.956;2023-05-07T01:06:44;14.60;;;10.10;;
13698;SDS011;6921;53.642;9.956;2023-05-07T01:08:49;13.35;;;9.73;;
13698;SDS011;6921;53.642;9.956;2023-05-07T01:10:54;14.05;;;10.23;;
13698;SDS011;6921;53.642;9.956;2023-05-07T01:12:58;13.48;;;10.40;;
13698;SDS011;6921;53.642;9.956;2023-05-07T01:15:02;14.43;;;10.60;;
13698;SDS011;6921;53.642;9.956;2023-05-07T01:17:08;12.25;;;9.57;;
13698;SDS011;6921;53.642;9.956;2023-05-07T01:19:13;13.10;;;10.83;;
13698;SDS011;6921;53.642;9.956;2023-05-07T01:21:22;14.18;;;10.30;;
13698;SDS011;6921;53.642;9.956;2023-05-07T01:23:30;13.20;;;10.60;;
13698;SDS011;6921;53.642;9.956;2023-05-07T01:25:33;12.43;;;9.50;;
13698;SDS011;6921;53.642;9.956;2023-05-07T01:27:38;14.63;;;10.73;;
13698;SDS011;6921;53.642;9.956;2023-05-07T01:29:41;13.63;;;9.77;;
13698;SDS011;6921;53.642;9.956;2023-05-07T01:31:45;12.77;;;9.57;;
13698;SDS011;6921;53.642;9.956;2023-05-07T01:33:50;10.95;;;9.07;;
13698;SDS011;6921;53.642;9.956;2023-05-07T01:35:55;10.38;;;8.82;;
13698;SDS011;6921;53.642;9.956;2023-05-07T01:37:59;13.30;;;9.80;;
13698;SDS011;6921;53.642;9.956;2023-05-07T01:40:08;12.43;;;9.07;;
13698;SDS011;6921;53.642;9.956;2023-05-07T01:42:12;10.52;;;8.60;;
13698;SDS011;6921;53.642;9.956;2023-05-07T01:44:18;10.73;;;8.88;;
13698;SDS011;6921;53.642;9.956;2023-05-07T01:46:22;11.60;;;9.23;;
13698;SDS011;6921;53.642;9.956;2023-05-07T01:48:25;11.43;;;9.05;;
13698;SDS011;6921;53.642;9.956;2023-05-07T01:50:32;12.05;;;9.73;;
13698;SDS011;6921;53.642;9.956;2023-05-07T01:52:37;15.10;;;9.80;;
13698;SDS011;6921;53.642;9.956;2023-05-07T01:54:40;13.23;;;9.53;;
13698;SDS011;6921;53.642;9.956;2023-05-07T01:56:46;11.67;;;9.93;;
13698;SDS011;6921;53.642;9.956;2023-05-07T01:58:50;11.23;;;9.23;;
13698;SDS011;6921;53.642;9.956;2023-05-07T02:00:56;11.47;;;8.90;;
13698;SDS011;6921;53.642;9.956;2023-05-07T02:03:00;10.50;;;9.03;;
13698;SDS011;6921;53.642;9.956;2023-05-07T02:05:04;12.93;;;9.50;;
13698;SDS011;6921;53.642;9.956;2023-05-07T02:07:08;13.05;;;9.95;;
13698;SDS011;6921;53.642;9.956;2023-05-07T02:09:13;15.13;;;10.18;;
13698;SDS011;6921;53.642;9.956;2023-05-07T02:11:19;11.30;;;8.97;;
13698;SDS011;6921;53.642;9.956;2023-05-07T02:13:23;10.15;;;8.80;;
13698;SDS011;6921;53.642;9.956;2023-05-07T02:15:28;11.02;;;8.90;;
13698;SDS011;6921;53.642;9.956;2023-05-07T02:17:31;10.35;;;8.63;;
13698;SDS011;6921;53.642;9.956;2023-05-07T02:19:35;13.45;;;8.98;;
13698;SDS011;6921;53.642;9.956;2023-05-07T02:21:39;11.63;;;9.30;;
13698;SDS011;6921;53.642;9.956;2023-05-07T02:23:42;11.70;;;8.90;;
13698;SDS011;6921;53.642;9.956;2023-05-07T02:25:46;10.20;;;8.83;;
13698;SDS011;6921;53.642;9.956;2023-05-07T02:27:49;12.68;;;8.70;;
13698;SDS011;6921;53.642;9.956;2023-05-07T02:29:54;10.23;;;8.67;;
13698;SDS011;6921;53.642;9.956;2023-05-07T02:31:58;10.85;;;7.80;;
13698;SDS011;6921;53.642;9.956;2023-05-07T02:34:01;10.67;;;8.73;;
13698;SDS011;6921;53.642;9.956;2023-05-07T02:36:06;9.40;;;7.90;;
13698;SDS011;6921;53.642;9.956;2023-05-07T02:38:09;9.53;;;8.00;;
13698;SDS011;6921;53.642;9.956;2023-05-07T02:40:13;9.30;;;7.60;;
13698;SDS011;6921;53.642;9.956;2023-05-07T02:42:17;11.45;;;8.10;;
13698;SDS011;6921;53.642;9.956;2023-05-07T02:44:20;9.80;;;7.87;;
13698;SDS011;6921;53.642;9.956;2023-05-07T02:46:25;12.50;;;8.50;;
13698;SDS011;6921;53.642;9.956;2023-05-07T02:48:29;10.98;;;9.30;;
13698;SDS011;6921;53.642;9.956;2023-05-07T02:50:32;11.20;;;8.95;;
13698;SDS011;6921;53.642;9.956;2023-05-07T02:52:36;11.63;;;9.50;;
13698;SDS011;6921;53.642;9.956;2023-05-07T02:54:39;11.57;;;9.25;;
13698;SDS011;6921;53.642;9.956;2023-05-07T02:56:43;12.10;;;9.52;;
13698;SDS011;6921;53.642;9.956;2023-05-07T02:58:47;10.98;;;8.70;;
13698;SDS011;6921;53.642;9.956;2023-05-07T03:00:51;14.95;;;9.10;;
13698;SDS011;6921;53.642;9.956;2023-05-07T03:02:57;11.73;;;8.65;;
13698;SDS011;6921;53.642;9.956;2023-05-07T03:05:03;10.82;;;8.73;;
13698;SDS011;6921;53.642;9.956;2023-05-07T03:07:07;10.43;;;8.63;;
13698;SDS011;6921;53.642;9.956;2023-05-07T03:09:12;11.98;;;8.90;;
13698;SDS011;6921;53.642;9.956;2023-05-07T03:11:16;12.30;;;8.83;;
13698;SDS011;6921;53.642;9.956;2023-05-07T03:13:19;11.38;;;9.40;;
13698;SDS011;6921;53.642;9.956;2023-05-07T03:15:23;14.70;;;9.40;;
13698;SDS011;6921;53.642;9.956;2023-05-07T03:17:26;11.30;;;9.33;;
13698;SDS011;6921;53.642;9.956;2023-05-07T03:19:31;11.67;;;9.50;;
13698;SDS011;6921;53.642;9.956;2023-05-07T03:21:35;12.07;;;9.87;;
13698;SDS011;6921;53.642;9.956;2023-05-07T03:23:38;11.73;;;9.07;;
13698;SDS011;6921;53.642;9.956;2023-05-07T03:25:42;11.93;;;10.00;;
13698;SDS011;6921;53.642;9.956;2023-05-07T03:27:45;12.47;;;9.67;;
13698;SDS011;6921;53.642;9.956;2023-05-07T03:29:49;12.50;;;9.37;;
13698;SDS011;6921;53.642;9.956;2023-05-07T03:31:52;11.82;;;9.57;;
13698;SDS011;6921;53.642;9.956;2023-05-07T03:33:56;14.30;;;10.73;;
13698;SDS011;6921;53.642;9.956;2023-05-07T03:36:01;12.13;;;9.47;;
13698;SDS011;6921;53.642;9.956;2023-05-07T03:38:07;14.67;;;9.63;;
13698;SDS011;6921;53.642;9.956;2023-05-07T03:40:11;12.80;;;10.07;;
13698;SDS011;6921;53.642;9.956;2023-05-07T03:42:15;12.67;;;9.63;;
13698;SDS011;6921;53.642;9.956;2023-05-07T03:44:18;11.90;;;9.13;;
13698;SDS011;6921;53.642;9.956;2023-05-07T03:46:22;12.02;;;9.70;;
13698;SDS011;6921;53.642;9.956;2023-05-07T03:48:27;12.25;;;9.50;;
13698;SDS011;6921;53.642;9.956;2023-05-07T03:50:31;11.70;;;9.23;;
13698;SDS011;6921;53.642;9.956;2023-05-07T03:52:37;13.10;;;9.13;;
13698;SDS011;6921;53.642;9.956;2023-05-07T03:54:40;11.10;;;8.85;;
13698;SDS011;6921;53.642;9.956;2023-05-07T03:56:45;11.90;;;9.32;;
13698;SDS011;6921;53.642;9.956;2023-05-07T03:58:48;11.33;;;8.90;;
13698;SDS011;6921;53.642;9.956;2023-05-07T04:00:52;10.70;;;8.83;;
13698;SDS011;6921;53.642;9.956;2023-05-07T04:02:55;10.75;;;9.32;;
13698;SDS011;6921;53.642;9.956;2023-05-07T04:04:59;11.87;;;8.90;;
13698;SDS011;6921;53.642;9.956;2023-05-07T04:07:03;9.98;;;8.85;;
13698;SDS011;6921;53.642;9.956;2023-05-07T04:09:08;12.37;;;9.30;;
13698;SDS011;6921;53.642;9.956;2023-05-07T04:11:12;11.03;;;8.63;;
13698;SDS011;6921;53.642;9.956;2023-05-07T04:13:15;10.30;;;8.70;;
13698;SDS011;6921;53.642;9.956;2023-05-07T04:15:19;10.80;;;8.75;;
13698;SDS011;6921;53.642;9.956;2023-05-07T04:17:22;11.43;;;9.85;;
13698;SDS011;6921;53.642;9.956;2023-05-07T04:19:26;11.52;;;9.05;;
13698;SDS011;6921;53.642;9.956;2023-05-07T04:21:29;11.43;;;9.13;;
13698;SDS011;6921;53.642;9.956;2023-05-07T04:23:33;10.60;;;8.38;;
13698;SDS011;6921;53.642;9.956;2023-05-07T04:25:38;10.77;;;8.73;;
13698;SDS011;6921;53.642;9.956;2023-05-07T04:27:42;10.25;;;8.57;;
13698;SDS011;6921;53.642;9.956;2023-05-07T04:29:46;11.90;;;9.18;;
13698;SDS011;6921;53.642;9.956;2023-05-07T04:31:50;10.10;;;8.02;;
13698;SDS011;6921;53.642;9.956;2023-05-07T04:33:53;10.02;;;8.20;;
13698;SDS011;6921;53.642;9.956;2023-05-07T04:35:56;9.43;;;7.55;;
13698;SDS011;6921;53.642;9.956;2023-05-07T04:38:04;12.13;;;9.00;;
13698;SDS011;6921;53.642;9.956;2023-05-07T04:40:07;10.45;;;7.95;;
13698;SDS011;6921;53.642;9.956;2023-05-07T04:42:15;10.40;;;8.48;;
13698;SDS011;6921;53.642;9.956;2023-05-07T04:44:20;9.60;;;7.65;;
13698;SDS011;6921;53.642;9.956;2023-05-07T04:46:24;11.73;;;7.53;;
13698;SDS011;6921;53.642;9.956;2023-05-07T04:48:27;9.65;;;7.70;;
13698;SDS011;6921;53.642;9.956;2023-05-07T04:50:31;10.45;;;8.32;;
13698;SDS011;6921;53.642;9.956;2023-05-07T04:52:34;10.15;;;7.95;;
13698;SDS011;6921;53.642;9.956;2023-05-07T04:54:38;10.02;;;8.10;;
13698;SDS011;6921;53.642;9.956;2023-05-07T04:56:41;10.20;;;8.45;;
13698;SDS011;6921;53.642;9.956;2023-05-07T04:58:47;10.87;;;8.17;;
13698;SDS011;6921;53.642;9.956;2023-05-07T05:00:50;11.52;;;8.40;;
13698;SDS011;6921;53.642;9.956;2023-05-07T05:02:53;11.53;;;8.30;;
13698;SDS011;6921;53.642;9.956;2023-05-07T05:04:57;9.88;;;8.63;;
13698;SDS011;6921;53.642;9.956;2023-05-07T05:07:03;10.50;;;7.80;;
13698;SDS011;6921;53.642;9.956;2023-05-07T05:09:07;12.30;;;8.98;;
13698;SDS011;6921;53.642;9.956;2023-05-07T05:11:11;10.23;;;7.97;;
13698;SDS011;6921;53.642;9.956;2023-05-07T05:13:15;11.25;;;8.55;;
13698;SDS011;6921;53.642;9.956;2023-05-07T05:15:20;10.52;;;7.55;;
13698;SDS011;6921;53.642;9.956;2023-05-07T05:17:24;10.85;;;8.38;;
13698;SDS011;6921;53.642;9.956;2023-05-07T05:19:30;12.00;;;8.45;;
13698;SDS011;6921;53.642;9.956;2023-05-07T05:21:37;10.75;;;8.15;;
13698;SDS011;6921;53.642;9.956;2023-05-07T05:23:45;10.23;;;7.33;;
13698;SDS011;6921;53.642;9.956;2023-05-07T05:25:48;9.95;;;8.05;;
13698;SDS011;6921;53.642;9.956;2023-05-07T05:27:52;10.63;;;7.70;;
13698;SDS011;6921;53.642;9.956;2023-05-07T05:29:56;9.70;;;7.73;;
13698;SDS011;6921;53.642;9.956;2023-05-07T05:32:01;10.57;;;8.65;;
13698;SDS011;6921;53.642;9.956;2023-05-07T05:34:04;9.52;;;6.78;;
13698;SDS011;6921;53.642;9.956;2023-05-07T05:36:09;9.93;;;7.10;;
13698;SDS011;6921;53.642;9.956;2023-05-07T05:38:16;10.32;;;7.15;;
13698;SDS011;6921;53.642;9.956;2023-05-07T05:40:22;10.13;;;8.17;;
13698;SDS011;6921;53.642;9.956;2023-05-07T05:42:29;10.13;;;7.80;;
13698;SDS011;6921;53.642;9.956;2023-05-07T05:44:32;9.65;;;8.07;;
13698;SDS011;6921;53.642;9.956;2023-05-07T05:46:36;10.75;;;7.90;;
13698;SDS011;6921;53.642;9.956;2023-05-07T05:48:41;9.63;;;7.82;;
13698;SDS011;6921;53.642;9.956;2023-05-07T05:50:45;9.15;;;8.02;;
13698;SDS011;6921;53.642;9.956;2023-05-07T05:52:48;12.98;;;8.85;;
13698;SDS011;6921;53.642;9.956;2023-05-07T05:54:53;10.48;;;8.55;;
13698;SDS011;6921;53.642;9.956;2023-05-07T05:56:56;11.48;;;8.65;;
13698;SDS011;6921;53.642;9.956;2023-05-07T05:59:01;10.00;;;7.80;;
13698;SDS011;6921;53.642;9.956;2023-05-07T06:01:06;9.55;;;7.95;;
13698;SDS011;6921;53.642;9.956;2023-05-07T06:03:18;11.38;;;8.23;;
13698;SDS011;6921;53.642;9.956;2023-05-07T06:05:23;10.38;;;8.10;;
13698;SDS011;6921;53.642;9.956;2023-05-07T06:07:26;10.15;;;7.25;;
13698;SDS011;6921;53.642;9.956;2023-05-07T06:09:30;8.35;;;7.47;;
13698;SDS011;6921;53.642;9.956;2023-05-07T06:11:34;8.98;;;7.70;;
13698;SDS011;6921;53.642;9.956;2023-05-07T06:13:37;10.50;;;7.82;;
13698;SDS011;6921;53.642;9.956;2023-05-07T06:15:41;10.05;;;8.38;;
13698;SDS011;6921;53.642;9.956;2023-05-07T06:17:49;8.98;;;7.93;;
13698;SDS011;6921;53.642;9.956;2023-05-07T06:19:52;9.07;;;7.22;;
13698;SDS011;6921;53.642;9.956;2023-05-07T06:22:00;8.57;;;7.47;;
13698;SDS011;6921;53.642;9.956;2023-05-07T06:24:06;9.20;;;7.30;;
13698;SDS011;6921;53.642;9.956;2023-05-07T06:26:10;9.57;;;7.90;;
13698;SDS011;6921;53.642;9.956;2023-05-07T06:28:17;9.63;;;7.78;;
13698;SDS011;6921;53.642;9.956;2023-05-07T06:30:21;9.93;;;7.63;;
13698;SDS011;6921;53.642;9.956;2023-05-07T06:32:25;9.27;;;7.20;;
13698;SDS011;6921;53.642;9.956;2023-05-07T06:34:29;9.48;;;7.68;;
13698;SDS011;6921;53.642;9.956;2023-05-07T06:36:32;8.98;;;7.60;;
13698;SDS011;6921;53.642;9.956;2023-05-07T06:38:38;10.32;;;7.80;;
13698;SDS011;6921;53.642;9.956;2023-05-07T06:40:49;7.82;;;6.68;;
13698;SDS011;6921;53.642;9.956;2023-05-07T06:42:52;9.38;;;7.35;;
13698;SDS011;6921;53.642;9.956;2023-05-07T06:44:56;8.23;;;6.68;;
13698;SDS011;6921;53.642;9.956;2023-05-07T06:46:59;8.65;;;7.10;;
13698;SDS011;6921;53.642;9.956;2023-05-07T06:49:02;10.00;;;7.03;;
13698;SDS011;6921;53.642;9.956;2023-05-07T06:51:06;8.73;;;6.85;;
13698;SDS011;6921;53.642;9.956;2023-05-07T06:53:11;8.27;;;7.22;;
13698;SDS011;6921;53.642;9.956;2023-05-07T06:55:16;9.80;;;7.97;;
13698;SDS011;6921;53.642;9.956;2023-05-07T06:57:20;9.57;;;7.43;;
13698;SDS011;6921;53.642;9.956;2023-05-07T06:59:24;9.38;;;6.82;;
13698;SDS011;6921;53.642;9.956;2023-05-07T07:01:27;9.48;;;7.45;;
13698;SDS011;6921;53.642;9.956;2023-05-07T07:03:31;7.90;;;6.75;;
13698;SDS011;6921;53.642;9.956;2023-05-07T07:05:37;8.65;;;6.82;;
13698;SDS011;6921;53.642;9.956;2023-05-07T07:07:43;7.00;;;6.30;;
13698;SDS011;6921;53.642;9.956;2023-05-07T07:09:54;8.43;;;6.90;;
13698;SDS011;6921;53.642;9.956;2023-05-07T07:12:02;7.75;;;6.18;;
13698;SDS011;6921;53.642;9.956;2023-05-07T07:14:06;9.10;;;6.80;;
13698;SDS011;6921;53.642;9.956;2023-05-07T07:16:10;8.35;;;7.00;;
13698;SDS011;6921;53.642;9.956;2023-05-07T07:18:13;8.15;;;6.68;;
13698;SDS011;6921;53.642;9.956;2023-05-07T07:20:17;7.45;;;6.57;;
13698;SDS011;6921;53.642;9.956;2023-05-07T07:22:21;8.70;;;6.68;;
13698;SDS011;6921;53.642;9.956;2023-05-07T07:24:24;7.22;;;6.53;;
13698;SDS011;6921;53.642;9.956;2023-05-07T07:26:27;9.82;;;6.38;;
13698;SDS011;6921;53.642;9.956;2023-05-07T07:28:32;8.32;;;6.30;;
13698;SDS011;6921;53.642;9.956;2023-05-07T07:30:36;7.75;;;6.47;;
13698;SDS011;6921;53.642;9.956;2023-05-07T07:32:39;7.47;;;6.10;;
13698;SDS011;6921;53.642;9.956;2023-05-07T07:34:43;7.05;;;6.07;;
13698;SDS011;6921;53.642;9.956;2023-05-07T07:36:47;7.22;;;6.00;;
13698;SDS011;6921;53.642;9.956;2023-05-07T07:38:50;8.02;;;5.97;;
13698;SDS011;6921;53.642;9.956;2023-05-07T07:40:54;7.95;;;6.40;;
13698;SDS011;6921;53.642;9.956;2023-05-07T07:42:58;8.88;;;5.95;;
13698;SDS011;6921;53.642;9.956;2023-05-07T07:45:05;8.18;;;6.10;;
13698;SDS011;6921;53.642;9.956;2023-05-07T07:47:09;7.30;;;6.00;;
13698;SDS011;6921;53.642;9.956;2023-05-07T07:49:13;8.65;;;6.15;;
13698;SDS011;6921;53.642;9.956;2023-05-07T07:51:17;7.72;;;5.97;;
13698;SDS011;6921;53.642;9.956;2023-05-07T07:53:21;6.82;;;6.10;;
13698;SDS011;6921;53.642;9.956;2023-05-07T07:55:24;6.78;;;5.68;;
13698;SDS011;6921;53.642;9.956;2023-05-07T07:57:28;7.18;;;6.13;;
13698;SDS011;6921;53.642;9.956;2023-05-07T07:59:32;6.38;;;5.78;;
13698;SDS011;6921;53.642;9.956;2023-05-07T08:01:37;7.30;;;5.97;;
13698;SDS011;6921;53.642;9.956;2023-05-07T08:03:41;6.97;;;6.00;;
13698;SDS011;6921;53.642;9.956;2023-05-07T08:05:44;7.35;;;5.85;;
13698;SDS011;6921;53.642;9.956;2023-05-07T08:07:48;7.45;;;5.57;;
13698;SDS011;6921;53.642;9.956;2023-05-07T08:09:54;6.78;;;5.88;;
13698;SDS011;6921;53.642;9.956;2023-05-07T08:11:57;7.65;;;6.95;;
13698;SDS011;6921;53.642;9.956;2023-05-07T08:14:01;7.47;;;6.03;;
13698;SDS011;6921;53.642;9.956;2023-05-07T08:16:04;6.85;;;6.15;;
13698;SDS011;6921;53.642;9.956;2023-05-07T08:18:12;6.70;;;6.00;;
13698;SDS011;6921;53.642;9.956;2023-05-07T08:20:17;6.32;;;5.57;;
13698;SDS011;6921;53.642;9.956;2023-05-07T08:22:21;7.25;;;5.88;;
13698;SDS011;6921;53.642;9.956;2023-05-07T08:24:25;6.53;;;5.90;;
13698;SDS011;6921;53.642;9.956;2023-05-07T08:26:29;5.95;;;5.38;;
13698;SDS011;6921;53.642;9.956;2023-05-07T08:28:33;6.63;;;6.00;;
13698;SDS011;6921;53.642;9.956;2023-05-07T08:30:36;6.95;;;5.38;;
13698;SDS011;6921;53.642;9.956;2023-05-07T08:32:40;7.38;;;6.53;;
13698;SDS011;6921;53.642;9.956;2023-05-07T08:34:45;7.85;;;6.47;;
13698;SDS011;6921;53.642;9.956;2023-05-07T08:36:49;7.43;;;6.60;;
13698;SDS011;6921;53.642;9.956;2023-05-07T08:38:52;8.07;;;6.25;;
13698;SDS011;6921;53.642;9.956;2023-05-07T08:40:56;7.30;;;6.20;;
13698;SDS011;6921;53.642;9.956;2023-05-07T08:42:59;6.53;;;5.82;;
13698;SDS011;6921;53.642;9.956;2023-05-07T08:45:04;7.72;;;6.40;;
13698;SDS011;6921;53.642;9.956;2023-05-07T08:47:12;6.53;;;5.88;;
13698;SDS011;6921;53.642;9.956;2023-05-07T08:49:16;7.15;;;6.45;;
13698;SDS011;6921;53.642;9.956;2023-05-07T08:51:21;7.25;;;6.32;;
13698;SDS011;6921;53.642;9.956;2023-05-07T08:53:25;8.48;;;6.28;;
13698;SDS011;6921;53.642;9.956;2023-05-07T08:55:28;6.93;;;6.22;;
13698;SDS011;6921;53.642;9.956;2023-05-07T08:57:32;7.60;;;6.47;;
13698;SDS011;6921;53.642;9.956;2023-05-07T08:59:36;7.72;;;6.32;;
13698;SDS011;6921;53.642;9.956;2023-05-07T09:01:39;6.60;;;5.85;;
13698;SDS011;6921;53.642;9.956;2023-05-07T09:03:43;6.80;;;5.35;;
13698;SDS011;6921;53.642;9.956;2023-05-07T09:05:47;6.88;;;6.00;;
13698;SDS011;6921;53.642;9.956;2023-05-07T09:07:52;6.57;;;5.88;;
13698;SDS011;6921;53.642;9.956;2023-05-07T09:09:59;6.22;;;5.63;;
13698;SDS011;6921;53.642;9.956;2023-05-07T09:12:08;8.35;;;5.50;;
13698;SDS011;6921;53.642;9.956;2023-05-07T09:14:12;6.60;;;6.00;;
13698;SDS011;6921;53.642;9.956;2023-05-07T09:16:16;6.20;;;5.60;;
13698;SDS011;6921;53.642;9.956;2023-05-07T09:18:19;6.25;;;5.65;;
13698;SDS011;6921;53.642;9.956;2023-05-07T09:20:22;5.93;;;5.30;;
13698;SDS011;6921;53.642;9.956;2023-05-07T09:22:26;6.82;;;5.35;;
13698;SDS011;6921;53.642;9.956;2023-05-07T09:24:31;5.50;;;4.95;;
13698;SDS011;6921;53.642;9.956;2023-05-07T09:26:38;7.00;;;5.32;;
13698;SDS011;6921;53.642;9.956;2023-05-07T09:28:42;6.18;;;5.57;;
13698;SDS011;6921;53.642;9.956;2023-05-07T09:30:46;6.40;;;5.20;;
13698;SDS011;6921;53.642;9.956;2023-05-07T09:32:50;5.93;;;5.22;;
13698;SDS011;6921;53.642;9.956;2023-05-07T09:34:54;6.00;;;5.38;;
13698;SDS011;6921;53.642;9.956;2023-05-07T09:37:01;5.90;;;5.07;;
13698;SDS011;6921;53.642;9.956;2023-05-07T09:39:07;5.72;;;4.68;;
13698;SDS011;6921;53.642;9.956;2023-05-07T09:41:13;5.35;;;4.25;;
13698;SDS011;6921;53.642;9.956;2023-05-07T09:43:16;5.90;;;5.30;;
13698;SDS011;6921;53.642;9.956;2023-05-07T09:45:24;5.40;;;4.78;;
13698;SDS011;6921;53.642;9.956;2023-05-07T09:47:28;5.68;;;5.18;;
13698;SDS011;6921;53.642;9.956;2023-05-07T09:49:36;7.00;;;5.43;;
13698;SDS011;6921;53.642;9.956;2023-05-07T09:51:41;6.60;;;5.25;;
13698;SDS011;6921;53.642;9.956;2023-05-07T09:53:47;5.68;;;5.05;;
13698;SDS011;6921;53.642;9.956;2023-05-07T09:55:51;6.43;;;5.20;;
13698;SDS011;6921;53.642;9.956;2023-05-07T09:57:59;5.18;;;4.68;;
13698;SDS011;6921;53.642;9.956;2023-05-07T10:00:04;5.05;;;4.65;;
13698;SDS011;6921;53.642;9.956;2023-05-07T10:02:10;4.95;;;4.45;;
13698;SDS011;6921;53.642;9.956;2023-05-07T10:04:14;5.70;;;4.65;;
13698;SDS011;6921;53.642;9.956;2023-05-07T10:06:17;5.45;;;4.45;;
13698;SDS011;6921;53.642;9.956;2023-05-07T10:08:22;4.95;;;4.38;;
13698;SDS011;6921;53.642;9.956;2023-05-07T10:10:26;4.88;;;4.47;;
13698;SDS011;6921;53.642;9.956;2023-05-07T10:12:30;5.13;;;4.63;;
13698;SDS011;6921;53.642;9.956;2023-05-07T10:14:41;6.63;;;5.10;;
13698;SDS011;6921;53.642;9.956;2023-05-07T10:16:46;5.25;;;4.28;;
13698;SDS011;6921;53.642;9.956;2023-05-07T10:18:50;5.00;;;4.47;;
13698;SDS011;6921;53.642;9.956;2023-05-07T10:20:54;5.10;;;4.65;;
13698;SDS011;6921;53.642;9.956;2023-05-07T10:23:02;5.75;;;5.18;;
13698;SDS011;6921;53.642;9.956;2023-05-07T10:25:12;5.00;;;4.50;;
13698;SDS011;6921;53.642;9.956;2023-05-07T10:27:18;4.95;;;4.55;;
13698;SDS011;6921;53.642;9.956;2023-05-07T10:29:25;5.68;;;5.07;;
13698;SDS011;6921;53.642;9.956;2023-05-07T10:33:55;6.32;;;5.43;;
13698;SDS011;6921;53.642;9.956;2023-05-07T10:36:00;7.78;;;5.50;;
13698;SDS011;6921;53.642;9.956;2023-05-07T10:38:05;5.43;;;4.93;;
13698;SDS011;6921;53.642;9.956;2023-05-07T10:40:10;5.50;;;5.00;;
13698;SDS011;6921;53.642;9.956;2023-05-07T10:42:14;6.38;;;4.97;;
13698;SDS011;6921;53.642;9.956;2023-05-07T10:44:26;5.60;;;5.00;;
13698;SDS011;6921;53.642;9.956;2023-05-07T10:46:31;5.28;;;4.78;;
13698;SDS011;6921;53.642;9.956;2023-05-07T10:48:49;6.28;;;4.78;;
13698;SDS011;6921;53.642;9.956;2023-05-07T10:51:19;8.60;;;4.75;;
13698;SDS011;6921;53.642;9.956;2023-05-07T10:53:43;5.07;;;4.57;;
13698;SDS011;6921;53.642;9.956;2023-05-07T10:55:47;7.68;;;4.45;;
13698;SDS011;6921;53.642;9.956;2023-05-07T10:57:51;5.00;;;4.40;;
13698;SDS011;6921;53.642;9.956;2023-05-07T10:59:55;4.85;;;4.35;;
13698;SDS011;6921;53.642;9.956;2023-05-07T11:01:59;5.38;;;4.88;;
13698;SDS011;6921;53.642;9.956;2023-05-07T11:04:14;4.75;;;4.35;;
13698;SDS011;6921;53.642;9.956;2023-05-07T11:06:20;5.10;;;4.60;;
13698;SDS011;6921;53.642;9.956;2023-05-07T11:08:23;4.97;;;4.40;;
13698;SDS011;6921;53.642;9.956;2023-05-07T11:12:49;5.70;;;4.70;;
13698;SDS011;6921;53.642;9.956;2023-05-07T11:14:53;4.95;;;4.45;;
13698;SDS011;6921;53.642;9.956;2023-05-07T11:17:01;4.43;;;4.03;;
13698;SDS011;6921;53.642;9.956;2023-05-07T11:19:05;4.63;;;4.22;;
13698;SDS011;6921;53.642;9.956;2023-05-07T11:21:09;4.43;;;4.03;;
13698;SDS011;6921;53.642;9.956;2023-05-07T11:25:40;4.43;;;4.00;;
13698;SDS011;6921;53.642;9.956;2023-05-07T11:27:44;4.55;;;4.00;;
13698;SDS011;6921;53.642;9.956;2023-05-07T11:29:48;3.92;;;3.55;;
13698;SDS011;6921;53.642;9.956;2023-05-07T11:31:52;3.80;;;3.40;;
13698;SDS011;6921;53.642;9.956;2023-05-07T11:33:56;4.05;;;3.65;;
13698;SDS011;6921;53.642;9.956;2023-05-07T11:36:02;6.32;;;4.13;;
13698;SDS011;6921;53.642;9.956;2023-05-07T11:38:06;3.70;;;3.38;;
13698;SDS011;6921;53.642;9.956;2023-05-07T11:40:10;3.63;;;3.33;;
13698;SDS011;6921;53.642;9.956;2023-05-07T11:42:27;4.82;;;3.60;;
13698;SDS011;6921;53.642;9.956;2023-05-07T11:44:43;4.20;;;3.80;;
13698;SDS011;6921;53.642;9.956;2023-05-07T11:46:48;3.80;;;3.50;;
13698;SDS011;6921;53.642;9.956;2023-05-07T11:48:52;3.78;;;3.38;;
13698;SDS011;6921;53.642;9.956;2023-05-07T11:50:59;3.53;;;3.22;;
13698;SDS011;6921;53.642;9.956;2023-05-07T11:53:07;3.40;;;3.10;;
13698;SDS011;6921;53.642;9.956;2023-05-07T11:55:10;3.80;;;3.47;;
13698;SDS011;6921;53.642;9.956;2023-05-07T11:57:14;3.60;;;3.30;;
13698;SDS011;6921;53.642;9.956;2023-05-07T11:59:19;3.60;;;3.30;;
13698;SDS011;6921;53.642;9.956;2023-05-07T12:01:22;3.20;;;2.90;;
13698;SDS011;6921;53.642;9.956;2023-05-07T12:03:26;4.07;;;3.47;;
13698;SDS011;6921;53.642;9.956;2023-05-07T12:05:32;3.97;;;3.30;;
13698;SDS011;6921;53.642;9.956;2023-05-07T12:07:36;3.53;;;3.22;;
13698;SDS011;6921;53.642;9.956;2023-05-07T12:09:40;3.72;;;3.42;;
13698;SDS011;6921;53.642;9.956;2023-05-07T12:11:45;3.83;;;3.45;;
13698;SDS011;6921;53.642;9.956;2023-05-07T12:13:50;4.95;;;3.33;;
13698;SDS011;6921;53.642;9.956;2023-05-07T12:15:55;3.83;;;3.08;;
13698;SDS011;6921;53.642;9.956;2023-05-07T12:17:59;3.40;;;2.97;;
13698;SDS011;6921;53.642;9.956;2023-05-07T12:20:06;3.30;;;3.00;;
13698;SDS011;6921;53.642;9.956;2023-05-07T12:22:10;3.42;;;3.13;;
13698;SDS011;6921;53.642;9.956;2023-05-07T12:24:15;3.20;;;3.00;;
13698;SDS011;6921;53.642;9.956;2023-05-07T12:26:22;3.97;;;3.60;;
13698;SDS011;6921;53.642;9.956;2023-05-07T12:28:26;4.15;;;3.75;;
13698;SDS011;6921;53.642;9.956;2023-05-07T12:30:30;3.40;;;3.10;;
13698;SDS011;6921;53.642;9.956;2023-05-07T12:32:35;3.28;;;2.90;;
13698;SDS011;6921;53.642;9.956;2023-05-07T12:34:40;3.58;;;2.80;;
13698;SDS011;6921;53.642;9.956;2023-05-07T12:36:45;2.80;;;2.60;;
13698;SDS011;6921;53.642;9.956;2023-05-07T12:38:50;3.67;;;2.75;;
13698;SDS011;6921;53.642;9.956;2023-05-07T12:40:57;3.10;;;2.80;;
13698;SDS011;6921;53.642;9.956;2023-05-07T12:43:00;2.97;;;2.75;;
13698;SDS011;6921;53.642;9.956;2023-05-07T12:45:07;3.25;;;2.95;;